Crescent, Georgia
Current Conditions -  °F | °C
As of 6:55 AM on Sunday 21 Dec 2014 (Local Time) from KBQK Reporting Station
Overcast Overcast  
Wind Chill: 52°   Ceiling: 400
Heat Index: 52°   Visibility: 10mi
Dew Point: 50°   Wind: 10mph
Humidity: 94%   Direction: 20°NNE
Pressure: 30.16"   Gusts: NA
Location:  31.5°N, 81.36°W
Report Text: KBQK 211155Z AUTO 02009KT 10SM OVC004 11/10 A3016 RMK AO1
Loading
Personal Weather Stations






























Interactive Weather Map New forecast layout! Learn more

10-Day Weather Forecast

Advertisements
Track Severe Weather on mobile